ADDS METAR Data INFO
IDs: Format: Raw Decoded Include TAF

Data at: 1613 UTC 14 Aug 2018

METAR for:KSPB (Scappoose Ind Airpar, OR, US)
Text:KSPB 141553Z AUTO 34003KT 4SM HZ CLR 21/15 A2991 RMK AO2 SLP126 T02110150
Temperature: 21.1°C ( 70°F)
Dewpoint: 15.0°C ( 59°F) [RH = 68%]
Pressure (altimeter):29.91 inches Hg (1013.0 mb) [Sea level pressure: 1012.6 mb]
Winds:from the NNW (340 degrees) at 3 MPH (3 knots; 1.5 m/s)
Visibility: 4 sm ( 6 km)
Ceiling:at least 12,000 feet AGL
Clouds:sky clear below 12,000 feet AGL
Weather:HZ (haze)
QC Flag:automated observation with no human augmentation